sensor_id;sensor_type;location;lat;lon;timestamp;pressure;altitude;pressure_sealevel;temperature;humidity
47220;BME280;32961;51.936;4.788;2023-07-13T00:02:19;101331.84;;;18.36;73.66
47220;BME280;32961;51.936;4.788;2023-07-13T00:04:48;101335.63;;;18.35;73.27
47220;BME280;32961;51.936;4.788;2023-07-13T00:07:18;101332.88;;;18.35;73.51
47220;BME280;32961;51.936;4.788;2023-07-13T00:09:46;101328.59;;;18.32;73.80
47220;BME280;32961;51.936;4.788;2023-07-13T00:12:25;101330.66;;;18.30;74.05
47220;BME280;32961;51.936;4.788;2023-07-13T00:14:55;101333.78;;;18.27;74.04
47220;BME280;32961;51.936;4.788;2023-07-13T00:17:24;101334.84;;;18.26;74.19
47220;BME280;32961;51.936;4.788;2023-07-13T00:19:52;101347.91;;;18.24;74.49
47220;BME280;32961;51.936;4.788;2023-07-13T00:22:21;101341.56;;;18.23;74.70
47220;BME280;32961;51.936;4.788;2023-07-13T00:24:50;101341.72;;;18.22;75.06
47220;BME280;32961;51.936;4.788;2023-07-13T00:27:19;101338.31;;;18.20;75.57
47220;BME280;32961;51.936;4.788;2023-07-13T00:29:46;101332.13;;;18.18;75.55
47220;BME280;32961;51.936;4.788;2023-07-13T00:32:14;101331.44;;;18.16;76.01
47220;BME280;32961;51.936;4.788;2023-07-13T00:34:42;101330.81;;;18.14;76.30
47220;BME280;32961;51.936;4.788;2023-07-13T00:37:10;101331.44;;;18.16;76.57
47220;BME280;32961;51.936;4.788;2023-07-13T00:39:39;101325.75;;;18.17;76.85
47220;BME280;32961;51.936;4.788;2023-07-13T00:42:07;101324.91;;;18.17;76.90
47220;BME280;32961;51.936;4.788;2023-07-13T00:44:35;101341.81;;;18.14;77.43
47220;BME280;32961;51.936;4.788;2023-07-13T00:47:03;101333.72;;;18.12;77.38
47220;BME280;32961;51.936;4.788;2023-07-13T00:49:32;101342.16;;;18.10;77.76
47220;BME280;32961;51.936;4.788;2023-07-13T00:52:04;101346.31;;;18.06;78.00
47220;BME280;32961;51.936;4.788;2023-07-13T00:54:36;101334.13;;;18.01;78.13
47220;BME280;32961;51.936;4.788;2023-07-13T00:57:07;101338.59;;;18.02;78.03
47220;BME280;32961;51.936;4.788;2023-07-13T00:59:40;101340.47;;;18.01;78.01
47220;BME280;32961;51.936;4.788;2023-07-13T01:02:10;101340.47;;;18.01;78.15
47220;BME280;32961;51.936;4.788;2023-07-13T01:04:39;101343.22;;;18.01;77.87
47220;BME280;32961;51.936;4.788;2023-07-13T01:07:09;101337.25;;;17.98;78.08
47220;BME280;32961;51.936;4.788;2023-07-13T01:09:37;101339.66;;;17.92;77.94
47220;BME280;32961;51.936;4.788;2023-07-13T01:12:07;101340.03;;;17.89;78.25
47220;BME280;32961;51.936;4.788;2023-07-13T01:14:35;101339.53;;;17.86;78.10
47220;BME280;32961;51.936;4.788;2023-07-13T01:17:04;101344.16;;;17.85;78.03
47220;BME280;32961;51.936;4.788;2023-07-13T01:19:35;101349.00;;;17.83;78.02
47220;BME280;32961;51.936;4.788;2023-07-13T01:22:07;101344.88;;;17.79;78.27
47220;BME280;32961;51.936;4.788;2023-07-13T01:24:35;101347.13;;;17.75;78.33
47220;BME280;32961;51.936;4.788;2023-07-13T01:27:05;101352.81;;;17.74;78.73
47220;BME280;32961;51.936;4.788;2023-07-13T01:29:35;101346.47;;;17.73;78.88
47220;BME280;32961;51.936;4.788;2023-07-13T01:32:09;101352.50;;;17.69;79.31
47220;BME280;32961;51.936;4.788;2023-07-13T01:34:37;101360.06;;;17.67;79.35
47220;BME280;32961;51.936;4.788;2023-07-13T01:37:11;101356.81;;;17.63;79.92
47220;BME280;32961;51.936;4.788;2023-07-13T01:39:39;101351.69;;;17.60;80.37
47220;BME280;32961;51.936;4.788;2023-07-13T01:42:07;101352.91;;;17.57;81.06
47220;BME280;32961;51.936;4.788;2023-07-13T01:44:35;101357.91;;;17.54;81.48
47220;BME280;32961;51.936;4.788;2023-07-13T01:47:03;101363.06;;;17.48;81.84
47220;BME280;32961;51.936;4.788;2023-07-13T01:49:32;101365.13;;;17.46;82.17
47220;BME280;32961;51.936;4.788;2023-07-13T01:51:59;101367.19;;;17.44;82.66
47220;BME280;32961;51.936;4.788;2023-07-13T01:54:29;101376.66;;;17.42;82.71
47220;BME280;32961;51.936;4.788;2023-07-13T01:56:56;101367.72;;;17.40;83.13
47220;BME280;32961;51.936;4.788;2023-07-13T01:59:24;101371.53;;;17.39;82.99
47220;BME280;32961;51.936;4.788;2023-07-13T02:01:52;101370.84;;;17.37;83.34
47220;BME280;32961;51.936;4.788;2023-07-13T02:04:20;101373.91;;;17.33;83.66
47220;BME280;32961;51.936;4.788;2023-07-13T02:06:48;101373.25;;;17.31;83.75
47220;BME280;32961;51.936;4.788;2023-07-13T02:09:16;101367.25;;;17.28;83.72
47220;BME280;32961;51.936;4.788;2023-07-13T02:11:45;101371.03;;;17.27;83.85
47220;BME280;32961;51.936;4.788;2023-07-13T02:14:12;101372.06;;;17.26;84.03
47220;BME280;32961;51.936;4.788;2023-07-13T02:16:41;101375.66;;;17.26;83.94
47220;BME280;32961;51.936;4.788;2023-07-13T02:19:09;101374.13;;;17.24;83.92
47220;BME280;32961;51.936;4.788;2023-07-13T02:21:37;101375.84;;;17.25;84.03
47220;BME280;32961;51.936;4.788;2023-07-13T02:24:05;101375.84;;;17.25;83.92
47220;BME280;32961;51.936;4.788;2023-07-13T02:26:33;101372.75;;;17.20;83.93
47220;BME280;32961;51.936;4.788;2023-07-13T02:29:02;101372.56;;;17.21;84.04
47220;BME280;32961;51.936;4.788;2023-07-13T02:31:30;101371.91;;;17.19;84.12
47220;BME280;32961;51.936;4.788;2023-07-13T02:33:58;101374.47;;;17.21;83.94
47220;BME280;32961;51.936;4.788;2023-07-13T02:36:25;101374.81;;;17.17;84.12
47220;BME280;32961;51.936;4.788;2023-07-13T02:38:53;101387.88;;;17.15;84.37
47220;BME280;32961;51.936;4.788;2023-07-13T02:41:21;101381.53;;;17.15;84.45
47220;BME280;32961;51.936;4.788;2023-07-13T02:43:49;101383.25;;;17.16;84.74
47220;BME280;32961;51.936;4.788;2023-07-13T02:46:19;101384.09;;;17.16;84.76
47220;BME280;32961;51.936;4.788;2023-07-13T02:48:47;101378.59;;;17.16;85.11
47220;BME280;32961;51.936;4.788;2023-07-13T02:51:14;101379.66;;;17.15;85.21
47220;BME280;32961;51.936;4.788;2023-07-13T02:53:43;101373.28;;;17.15;85.44
47220;BME280;32961;51.936;4.788;2023-07-13T02:56:10;101375.53;;;17.11;85.59
47220;BME280;32961;51.936;4.788;2023-07-13T02:58:42;101372.97;;;17.10;85.69
47220;BME280;32961;51.936;4.788;2023-07-13T03:01:11;101378.44;;;17.10;86.01
47220;BME280;32961;51.936;4.788;2023-07-13T03:03:40;101378.78;;;17.07;86.45
47220;BME280;32961;51.936;4.788;2023-07-13T03:06:08;101373.66;;;17.04;87.16
47220;BME280;32961;51.936;4.788;2023-07-13T03:08:36;101381.00;;;17.03;87.06
47220;BME280;32961;51.936;4.788;2023-07-13T03:11:07;101382.91;;;17.03;87.06
47220;BME280;32961;51.936;4.788;2023-07-13T03:13:35;101379.47;;;17.00;87.33
47220;BME280;32961;51.936;4.788;2023-07-13T03:16:03;101377.59;;;17.01;87.38
47220;BME280;32961;51.936;4.788;2023-07-13T03:18:32;101385.16;;;16.99;87.41
47220;BME280;32961;51.936;4.788;2023-07-13T03:21:01;101376.41;;;16.95;87.62
47220;BME280;32961;51.936;4.788;2023-07-13T03:23:29;101376.59;;;16.94;87.98
47220;BME280;32961;51.936;4.788;2023-07-13T03:26:05;101384.13;;;16.92;88.37
47220;BME280;32961;51.936;4.788;2023-07-13T03:28:34;101385.13;;;16.91;88.86
47220;BME280;32961;51.936;4.788;2023-07-13T03:31:04;101374.50;;;16.88;89.22
47220;BME280;32961;51.936;4.788;2023-07-13T03:33:32;101382.22;;;16.84;89.91
47220;BME280;32961;51.936;4.788;2023-07-13T03:36:02;101393.38;;;16.82;90.11
47220;BME280;32961;51.936;4.788;2023-07-13T03:38:31;101381.53;;;16.82;90.49
47220;BME280;32961;51.936;4.788;2023-07-13T03:40:59;101383.25;;;16.83;90.81
47220;BME280;32961;51.936;4.788;2023-07-13T03:43:27;101390.78;;;16.81;91.17
47220;BME280;32961;51.936;4.788;2023-07-13T03:45:55;101390.97;;;16.79;91.57
47220;BME280;32961;51.936;4.788;2023-07-13T03:48:22;101392.00;;;16.78;91.82
47220;BME280;32961;51.936;4.788;2023-07-13T03:50:50;101387.53;;;16.77;92.39
47220;BME280;32961;51.936;4.788;2023-07-13T03:53:19;101392.34;;;16.75;92.39
47220;BME280;32961;51.936;4.788;2023-07-13T03:55:47;101400.91;;;16.72;92.59
47220;BME280;32961;51.936;4.788;2023-07-13T03:58:28;101404.69;;;16.71;93.00
47220;BME280;32961;51.936;4.788;2023-07-13T04:00:57;101407.59;;;16.69;92.87
47220;BME280;32961;51.936;4.788;2023-07-13T04:03:25;101409.50;;;16.69;93.13
47220;BME280;32961;51.936;4.788;2023-07-13T04:05:55;101410.72;;;16.66;93.17
47220;BME280;32961;51.936;4.788;2023-07-13T04:08:29;101409.84;;;16.66;93.48
47220;BME280;32961;51.936;4.788;2023-07-13T04:10:57;101406.06;;;16.67;93.46
47220;BME280;32961;51.936;4.788;2023-07-13T04:13:26;101408.81;;;16.67;93.60
47220;BME280;32961;51.936;4.788;2023-07-13T04:15:54;101411.56;;;16.67;93.76
47220;BME280;32961;51.936;4.788;2023-07-13T04:18:22;101415.00;;;16.69;93.98
47220;BME280;32961;51.936;4.788;2023-07-13T04:20:50;101422.19;;;16.70;94.10
47220;BME280;32961;51.936;4.788;2023-07-13T04:23:19;101421.31;;;16.69;94.47
47220;BME280;32961;51.936;4.788;2023-07-13T04:25:51;101423.03;;;16.71;94.02
47220;BME280;32961;51.936;4.788;2023-07-13T04:28:21;101421.31;;;16.69;94.50
47220;BME280;32961;51.936;4.788;2023-07-13T04:30:49;101424.25;;;16.68;95.21
47220;BME280;32961;51.936;4.788;2023-07-13T04:33:17;101436.06;;;16.68;94.85
47220;BME280;32961;51.936;4.788;2023-07-13T04:35:49;101435.22;;;16.68;95.47
47220;BME280;32961;51.936;4.788;2023-07-13T04:38:22;101434.19;;;16.69;95.40
47220;BME280;32961;51.936;4.788;2023-07-13T04:40:54;101435.03;;;16.69;95.78
47220;BME280;32961;51.936;4.788;2023-07-13T04:43:22;101441.88;;;16.74;95.90
47220;BME280;32961;51.936;4.788;2023-07-13T04:45:50;101436.25;;;16.75;95.70
47220;BME280;32961;51.936;4.788;2023-07-13T04:48:19;101437.63;;;16.79;95.89
47220;BME280;32961;51.936;4.788;2023-07-13T04:50:47;101442.59;;;16.84;95.68
47220;BME280;32961;51.936;4.788;2023-07-13T04:53:16;101440.19;;;16.89;95.70
47220;BME280;32961;51.936;4.788;2023-07-13T04:55:44;101433.53;;;16.92;95.87
47220;BME280;32961;51.936;4.788;2023-07-13T04:58:14;101441.06;;;16.98;95.70
47220;BME280;32961;51.936;4.788;2023-07-13T05:00:42;101443.31;;;17.03;95.61
47220;BME280;32961;51.936;4.788;2023-07-13T05:03:10;101438.16;;;17.08;96.07
47220;BME280;32961;51.936;4.788;2023-07-13T05:05:38;101438.34;;;17.14;96.27
47220;BME280;32961;51.936;4.788;2023-07-13T05:08:06;101450.16;;;17.23;96.40
47220;BME280;32961;51.936;4.788;2023-07-13T05:10:35;101447.56;;;17.30;96.31
47220;BME280;32961;51.936;4.788;2023-07-13T05:13:02;101454.78;;;17.39;96.00
47220;BME280;32961;51.936;4.788;2023-07-13T05:15:33;101451.84;;;17.41;95.93
47220;BME280;32961;51.936;4.788;2023-07-13T05:18:00;101462.13;;;17.47;95.84
47220;BME280;32961;51.936;4.788;2023-07-13T05:20:29;101471.06;;;17.49;95.63
47220;BME280;32961;51.936;4.788;2023-07-13T05:22:57;101456.81;;;17.54;95.58
47220;BME280;32961;51.936;4.788;2023-07-13T05:25:25;101464.84;;;17.55;95.11
47220;BME280;32961;51.936;4.788;2023-07-13T05:27:53;101460.41;;;17.54;95.34
47220;BME280;32961;51.936;4.788;2023-07-13T05:30:20;101462.63;;;17.59;95.30
47220;BME280;32961;51.936;4.788;2023-07-13T05:32:49;101457.25;;;17.65;95.62
47220;BME280;32961;51.936;4.788;2023-07-13T05:35:17;101462.94;;;17.72;95.15
47220;BME280;32961;51.936;4.788;2023-07-13T05:37:45;101455.38;;;17.74;95.17
47220;BME280;32961;51.936;4.788;2023-07-13T05:40:13;101468.22;;;17.82;94.86
47220;BME280;32961;51.936;4.788;2023-07-13T05:42:41;101464.56;;;17.90;94.71
47220;BME280;32961;51.936;4.788;2023-07-13T05:45:09;101474.53;;;17.99;94.42
47220;BME280;32961;51.936;4.788;2023-07-13T05:47:37;101473.16;;;18.03;93.98
47220;BME280;32961;51.936;4.788;2023-07-13T05:50:07;101479.34;;;18.05;93.46
47220;BME280;32961;51.936;4.788;2023-07-13T05:52:35;101483.81;;;18.06;93.10
47220;BME280;32961;51.936;4.788;2023-07-13T05:55:04;101486.88;;;18.11;93.04
47220;BME280;32961;51.936;4.788;2023-07-13T05:57:32;101490.78;;;18.17;92.72
47220;BME280;32961;51.936;4.788;2023-07-13T06:00:00;101495.41;;;18.25;92.65
47220;BME280;32961;51.936;4.788;2023-07-13T06:02:28;101493.66;;;18.32;92.36
47220;BME280;32961;51.936;4.788;2023-07-13T06:04:56;101498.44;;;18.38;91.83
47220;BME280;32961;51.936;4.788;2023-07-13T06:07:25;101499.91;;;18.49;91.84
47220;BME280;32961;51.936;4.788;2023-07-13T06:09:53;101495.53;;;18.63;91.27
47220;BME280;32961;51.936;4.788;2023-07-13T06:12:20;101499.22;;;18.79;91.73
47220;BME280;32961;51.936;4.788;2023-07-13T06:14:48;101505.47;;;18.96;91.51
47220;BME280;32961;51.936;4.788;2023-07-13T06:17:16;101498.91;;;18.97;90.77
47220;BME280;32961;51.936;4.788;2023-07-13T06:19:44;101503.94;;;18.93;91.81
47220;BME280;32961;51.936;4.788;2023-07-13T06:22:12;101509.97;;;18.88;91.84
47220;BME280;32961;51.936;4.788;2023-07-13T06:24:41;101511.56;;;18.83;92.16
47220;BME280;32961;51.936;4.788;2023-07-13T06:27:09;101519.03;;;18.74;92.79
47220;BME280;32961;51.936;4.788;2023-07-13T06:29:37;101525.91;;;18.70;92.88
47220;BME280;32961;51.936;4.788;2023-07-13T06:32:07;101526.13;;;18.60;93.53
47220;BME280;32961;51.936;4.788;2023-07-13T06:34:35;101521.75;;;18.51;93.83
47220;BME280;32961;51.936;4.788;2023-07-13T06:37:03;101531.03;;;18.50;94.29
47220;BME280;32961;51.936;4.788;2023-07-13T06:39:31;101527.66;;;18.39;94.47
47220;BME280;32961;51.936;4.788;2023-07-13T06:42:00;101532.88;;;18.26;95.25
47220;BME280;32961;51.936;4.788;2023-07-13T06:44:28;101533.41;;;18.21;95.48
47220;BME280;32961;51.936;4.788;2023-07-13T06:46:56;101525.69;;;18.17;95.53
47220;BME280;32961;51.936;4.788;2023-07-13T06:49:23;101529.66;;;18.14;96.09
47220;BME280;32961;51.936;4.788;2023-07-13T06:51:51;101534.31;;;18.14;96.27
47220;BME280;32961;51.936;4.788;2023-07-13T06:54:19;101536.19;;;18.13;96.34
47220;BME280;32961;51.936;4.788;2023-07-13T06:56:47;101534.31;;;18.14;96.77
47220;BME280;32961;51.936;4.788;2023-07-13T06:59:16;101539.44;;;18.17;97.07
47220;BME280;32961;51.936;4.788;2023-07-13T07:01:44;101544.75;;;18.18;97.35
47220;BME280;32961;51.936;4.788;2023-07-13T07:04:12;101541.88;;;18.11;96.94
47220;BME280;32961;51.936;4.788;2023-07-13T07:06:40;101547.88;;;18.15;97.15
47220;BME280;32961;51.936;4.788;2023-07-13T07:09:07;101545.63;;;18.19;97.51
47220;BME280;32961;51.936;4.788;2023-07-13T07:11:35;101544.22;;;18.23;97.32
47220;BME280;32961;51.936;4.788;2023-07-13T07:14:09;101545.22;;;18.30;97.98
47220;BME280;32961;51.936;4.788;2023-07-13T07:16:38;101551.91;;;18.36;98.00
47220;BME280;32961;51.936;4.788;2023-07-13T07:19:06;101568.22;;;18.37;98.37
47220;BME280;32961;51.936;4.788;2023-07-13T07:21:34;101580.63;;;18.33;97.55
47220;BME280;32961;51.936;4.788;2023-07-13T07:24:02;101573.94;;;18.27;97.38
47220;BME280;32961;51.936;4.788;2023-07-13T07:26:31;101571.41;;;18.18;96.90
47220;BME280;32961;51.936;4.788;2023-07-13T07:29:10;101572.31;;;18.10;96.65
47220;BME280;32961;51.936;4.788;2023-07-13T07:31:42;101582.41;;;18.09;97.15
47220;BME280;32961;51.936;4.788;2023-07-13T07:34:12;101577.44;;;18.05;97.17
47220;BME280;32961;51.936;4.788;2023-07-13T07:36:40;101590.69;;;18.01;97.09
47220;BME280;32961;51.936;4.788;2023-07-13T07:39:11;101584.69;;;17.98;97.04
47220;BME280;32961;51.936;4.788;2023-07-13T07:44:14;101558.03;;;17.81;96.75
47220;BME280;32961;51.936;4.788;2023-07-13T07:46:44;101573.19;;;17.69;97.00
47220;BME280;32961;51.936;4.788;2023-07-13T07:49:12;101572.84;;;17.64;97.54
47220;BME280;32961;51.936;4.788;2023-07-13T07:51:40;101575.09;;;17.52;97.28
47220;BME280;32961;51.936;4.788;2023-07-13T07:54:08;101586.75;;;17.13;95.88
47220;BME280;32961;51.936;4.788;2023-07-13T07:56:42;101582.47;;;17.10;96.77
47220;BME280;32961;51.936;4.788;2023-07-13T07:59:13;101579.72;;;17.19;97.70
47220;BME280;32961;51.936;4.788;2023-07-13T08:01:45;101579.75;;;17.27;97.36
47220;BME280;32961;51.936;4.788;2023-07-13T08:04:17;101584.91;;;17.38;97.47
47220;BME280;32961;51.936;4.788;2023-07-13T08:06:48;101578.38;;;17.47;97.43
47220;BME280;32961;51.936;4.788;2023-07-13T08:09:16;101583.00;;;17.63;97.79
47220;BME280;32961;51.936;4.788;2023-07-13T08:11:43;101575.56;;;17.89;98.29
47220;BME280;32961;51.936;4.788;2023-07-13T08:14:15;101571.22;;;18.11;97.99
47220;BME280;32961;51.936;4.788;2023-07-13T08:16:44;101567.53;;;18.35;98.49
47220;BME280;32961;51.936;4.788;2023-07-13T08:19:12;101568.78;;;18.64;98.93
47220;BME280;32961;51.936;4.788;2023-07-13T08:21:41;101574.56;;;18.77;98.00
47220;BME280;32961;51.936;4.788;2023-07-13T08:24:09;101571.94;;;18.84;96.75
47220;BME280;32961;51.936;4.788;2023-07-13T08:26:37;101573.31;;;18.88;96.84
47220;BME280;32961;51.936;4.788;2023-07-13T08:29:05;101574.88;;;18.91;96.11
47220;BME280;32961;51.936;4.788;2023-07-13T08:31:33;101567.25;;;18.93;96.64
47220;BME280;32961;51.936;4.788;2023-07-13T08:34:05;101578.41;;;19.00;97.01
47220;BME280;32961;51.936;4.788;2023-07-13T08:36:33;101570.56;;;18.88;94.23
47220;BME280;32961;51.936;4.788;2023-07-13T08:39:00;101569.47;;;18.98;95.35
47220;BME280;32961;51.936;4.788;2023-07-13T08:41:28;101569.28;;;18.99;94.89
47220;BME280;32961;51.936;4.788;2023-07-13T08:43:58;101575.84;;;18.98;94.23
47220;BME280;32961;51.936;4.788;2023-07-13T08:46:34;101579.75;;;19.04;94.58
47220;BME280;32961;51.936;4.788;2023-07-13T08:49:09;101574.94;;;19.06;94.65
47220;BME280;32961;51.936;4.788;2023-07-13T08:51:43;101574.75;;;19.07;94.23
47220;BME280;32961;51.936;4.788;2023-07-13T08:54:22;101572.72;;;19.24;94.50
47220;BME280;32961;51.936;4.788;2023-07-13T08:56:53;101572.81;;;19.54;95.04
47220;BME280;32961;51.936;4.788;2023-07-13T08:59:25;101571.00;;;19.85;94.35
47220;BME280;32961;51.936;4.788;2023-07-13T09:02:03;101572.91;;;19.99;91.59
47220;BME280;32961;51.936;4.788;2023-07-13T09:04:37;101580.81;;;20.02;91.09
47220;BME280;32961;51.936;4.788;2023-07-13T09:07:14;101573.44;;;19.80;85.73
47220;BME280;32961;51.936;4.788;2023-07-13T09:09:57;101579.41;;;19.68;85.54
47220;BME280;32961;51.936;4.788;2023-07-13T09:12:37;101575.41;;;19.71;85.78
47220;BME280;32961;51.936;4.788;2023-07-13T09:15:14;101577.03;;;19.80;85.17
47220;BME280;32961;51.936;4.788;2023-07-13T09:17:52;101579.63;;;19.82;86.37
47220;BME280;32961;51.936;4.788;2023-07-13T09:20:27;101587.00;;;20.04;86.84
47220;BME280;32961;51.936;4.788;2023-07-13T09:22:59;101586.91;;;20.13;84.68
47220;BME280;32961;51.936;4.788;2023-07-13T09:25:30;101592.78;;;20.10;82.41
47220;BME280;32961;51.936;4.788;2023-07-13T09:28:02;101602.78;;;20.11;83.27
47220;BME280;32961;51.936;4.788;2023-07-13T09:30:40;101599.25;;;20.02;79.47
47220;BME280;32961;51.936;4.788;2023-07-13T09:33:12;101598.25;;;19.80;77.17
47220;BME280;32961;51.936;4.788;2023-07-13T09:35:42;101600.22;;;19.56;78.63
47220;BME280;32961;51.936;4.788;2023-07-13T09:38:12;101597.94;;;19.60;81.03
47220;BME280;32961;51.936;4.788;2023-07-13T09:40:58;101594.38;;;19.51;82.37
47220;BME280;32961;51.936;4.788;2023-07-13T09:43:27;101600.56;;;19.30;84.06
47220;BME280;32961;51.936;4.788;2023-07-13T09:45:55;101605.28;;;19.21;86.01
47220;BME280;32961;51.936;4.788;2023-07-13T09:48:23;101612.94;;;19.11;87.07
47220;BME280;32961;51.936;4.788;2023-07-13T09:50:55;101616.00;;;19.16;88.73
47220;BME280;32961;51.936;4.788;2023-07-13T09:53:30;101616.13;;;19.22;88.41
47220;BME280;32961;51.936;4.788;2023-07-13T09:55:58;101614.88;;;19.25;88.63
47220;BME280;32961;51.936;4.788;2023-07-13T09:58:30;101625.38;;;19.30;88.09
47220;BME280;32961;51.936;4.788;2023-07-13T10:01:00;101619.19;;;19.04;87.11
47220;BME280;32961;51.936;4.788;2023-07-13T10:03:33;101622.06;;;19.11;87.59
47220;BME280;32961;51.936;4.788;2023-07-13T10:06:12;101628.31;;;19.28;87.31
47220;BME280;32961;51.936;4.788;2023-07-13T10:08:41;101629.66;;;19.55;87.59
47220;BME280;32961;51.936;4.788;2023-07-13T10:11:11;101631.16;;;19.81;86.50
47220;BME280;32961;51.936;4.788;2023-07-13T10:13:43;101624.28;;;20.00;84.46
47220;BME280;32961;51.936;4.788;2023-07-13T10:16:12;101624.69;;;20.27;84.00
47220;BME280;32961;51.936;4.788;2023-07-13T10:18:45;101626.28;;;20.36;80.93
47220;BME280;32961;51.936;4.788;2023-07-13T10:21:17;101635.25;;;20.39;80.44
47220;BME280;32961;51.936;4.788;2023-07-13T10:24:06;101631.31;;;20.33;79.18
47220;BME280;32961;51.936;4.788;2023-07-13T10:26:42;101631.16;;;20.34;80.23
47220;BME280;32961;51.936;4.788;2023-07-13T10:29:14;101645.16;;;20.48;80.22
47220;BME280;32961;51.936;4.788;2023-07-13T10:31:45;101636.28;;;20.67;78.06
47220;BME280;32961;51.936;4.788;2023-07-13T10:34:13;101633.22;;;20.92;76.03
47220;BME280;32961;51.936;4.788;2023-07-13T10:36:45;101632.28;;;20.85;77.60
47220;BME280;32961;51.936;4.788;2023-07-13T10:39:17;101639.88;;;20.68;77.09
47220;BME280;32961;51.936;4.788;2023-07-13T10:41:49;101643.44;;;20.47;75.76
47220;BME280;32961;51.936;4.788;2023-07-13T10:44:22;101650.97;;;20.38;76.70
47220;BME280;32961;51.936;4.788;2023-07-13T10:46:55;101648.56;;;20.50;77.84
47220;BME280;32961;51.936;4.788;2023-07-13T10:49:24;101650.25;;;20.66;74.42
47220;BME280;32961;51.936;4.788;2023-07-13T10:51:55;101661.03;;;20.61;75.49
47220;BME280;32961;51.936;4.788;2023-07-13T10:54:27;101653.13;;;20.88;74.69
47220;BME280;32961;51.936;4.788;2023-07-13T10:57:17;101659.75;;;21.08;68.15
47220;BME280;32961;51.936;4.788;2023-07-13T10:59:48;101656.78;;;21.10;66.05
47220;BME280;32961;51.936;4.788;2023-07-13T11:02:24;101650.63;;;21.29;63.62
47220;BME280;32961;51.936;4.788;2023-07-13T11:04:54;101653.88;;;21.55;61.64
47220;BME280;32961;51.936;4.788;2023-07-13T11:07:25;101658.16;;;21.79;61.84
47220;BME280;32961;51.936;4.788;2023-07-13T11:09:55;101651.63;;;21.87;57.18
47220;BME280;32961;51.936;4.788;2023-07-13T11:15:12;101657.75;;;21.82;58.56
47220;BME280;32961;51.936;4.788;2023-07-13T11:17:53;101656.84;;;21.75;57.23
47220;BME280;32961;51.936;4.788;2023-07-13T11:20:40;101649.59;;;21.74;58.75
47220;BME280;32961;51.936;4.788;2023-07-13T11:23:27;101662.28;;;21.90;55.35
47220;BME280;32961;51.936;4.788;2023-07-13T11:25:57;101655.75;;;22.26;57.17
47220;BME280;32961;51.936;4.788;2023-07-13T11:28:27;101654.53;;;22.64;55.63
47220;BME280;32961;51.936;4.788;2023-07-13T11:31:03;101660.81;;;22.92;55.20
47220;BME280;32961;51.936;4.788;2023-07-13T11:33:53;101654.09;;;23.15;53.66
47220;BME280;32961;51.936;4.788;2023-07-13T11:36:24;101652.44;;;23.28;52.58
47220;BME280;32961;51.936;4.788;2023-07-13T11:38:59;101655.22;;;23.48;53.22
47220;BME280;32961;51.936;4.788;2023-07-13T11:41:30;101652.94;;;23.71;52.80
47220;BME280;32961;51.936;4.788;2023-07-13T11:44:11;101653.78;;;23.92;51.11
47220;BME280;32961;51.936;4.788;2023-07-13T11:46:44;101651.66;;;24.08;50.30
47220;BME280;32961;51.936;4.788;2023-07-13T11:49:16;101654.41;;;24.14;47.54
47220;BME280;32961;51.936;4.788;2023-07-13T11:51:46;101656.34;;;24.21;48.71
47220;BME280;32961;51.936;4.788;2023-07-13T11:54:27;101650.97;;;24.32;51.61
47220;BME280;32961;51.936;4.788;2023-07-13T11:56:58;101654.59;;;24.46;50.44
47220;BME280;32961;51.936;4.788;2023-07-13T11:59:29;101663.16;;;24.38;48.99
47220;BME280;32961;51.936;4.788;2023-07-13T12:01:59;101654.84;;;23.78;51.25
47220;BME280;32961;51.936;4.788;2023-07-13T12:04:32;101662.50;;;23.55;51.06
47220;BME280;32961;51.936;4.788;2023-07-13T12:07:06;101662.66;;;23.27;51.79
47220;BME280;32961;51.936;4.788;2023-07-13T12:09:36;101662.53;;;22.94;52.13
47220;BME280;32961;51.936;4.788;2023-07-13T12:12:10;101656.34;;;22.50;53.51
47220;BME280;32961;51.936;4.788;2023-07-13T12:14:39;101656.13;;;22.51;55.64
47220;BME280;32961;51.936;4.788;2023-07-13T12:17:16;101657.47;;;22.27;56.63
47220;BME280;32961;51.936;4.788;2023-07-13T12:19:47;101663.00;;;21.99;56.74
47220;BME280;32961;51.936;4.788;2023-07-13T12:22:17;101658.22;;;22.14;54.96
47220;BME280;32961;51.936;4.788;2023-07-13T12:24:48;101666.13;;;21.89;55.05
47220;BME280;32961;51.936;4.788;2023-07-13T12:27:20;101658.31;;;21.71;55.85
47220;BME280;32961;51.936;4.788;2023-07-13T12:29:50;101662.91;;;21.85;54.64
47220;BME280;32961;51.936;4.788;2023-07-13T12:32:20;101660.53;;;22.10;54.71
47220;BME280;32961;51.936;4.788;2023-07-13T12:34:53;101661.34;;;22.04;54.30
47220;BME280;32961;51.936;4.788;2023-07-13T12:37:22;101652.22;;;22.39;53.30
47220;BME280;32961;51.936;4.788;2023-07-13T12:39:51;101660.16;;;22.90;54.95
47220;BME280;32961;51.936;4.788;2023-07-13T12:42:21;101652.88;;;22.83;52.62
47220;BME280;32961;51.936;4.788;2023-07-13T12:44:53;101656.78;;;22.47;54.20
47220;BME280;32961;51.936;4.788;2023-07-13T12:47:21;101655.31;;;22.22;53.47
47220;BME280;32961;51.936;4.788;2023-07-13T12:49:53;101659.19;;;22.28;55.08
47220;BME280;32961;51.936;4.788;2023-07-13T12:52:24;101656.56;;;22.48;52.83
47220;BME280;32961;51.936;4.788;2023-07-13T12:55:03;101672.16;;;22.27;50.78
47220;BME280;32961;51.936;4.788;2023-07-13T12:57:38;101659.56;;;22.53;52.94
47220;BME280;32961;51.936;4.788;2023-07-13T13:00:22;101662.03;;;22.76;51.93
47220;BME280;32961;51.936;4.788;2023-07-13T13:02:52;101666.66;;;22.69;52.84
47220;BME280;32961;51.936;4.788;2023-07-13T13:05:30;101661.69;;;23.00;50.86
47220;BME280;32961;51.936;4.788;2023-07-13T13:08:00;101676.41;;;23.00;50.31
47220;BME280;32961;51.936;4.788;2023-07-13T13:10:29;101664.56;;;22.71;50.69
47220;BME280;32961;51.936;4.788;2023-07-13T13:12:57;101676.25;;;22.67;52.32